sensor_id;sensor_type;location;lat;lon;timestamp;pressure;altitude;pressure_sealevel;temperature;humidity
80164;BME280;70071;55.130;61.268;2024-02-21T00:01:15;100068.13;;;-9.79;21.71
80164;BME280;70071;55.130;61.268;2024-02-21T00:03:41;100144.53;;;-9.44;21.62
80164;BME280;70071;55.130;61.268;2024-02-21T00:06:07;100131.72;;;-9.45;21.42
80164;BME280;70071;55.130;61.268;2024-02-21T00:08:34;100117.50;;;-9.63;20.81
80164;BME280;70071;55.130;61.268;2024-02-21T00:11:00;100130.25;;;-9.59;20.71
80164;BME280;70071;55.130;61.268;2024-02-21T00:13:26;100129.63;;;-9.72;21.51
80164;BME280;70071;55.130;61.268;2024-02-21T00:15:52;100051.63;;;-10.13;21.17
80164;BME280;70071;55.130;61.268;2024-02-21T00:18:18;100131.19;;;-9.65;21.94
80164;BME280;70071;55.130;61.268;2024-02-21T00:20:44;100078.56;;;-9.43;22.12
80164;BME280;70071;55.130;61.268;2024-02-21T00:23:10;100022.88;;;-10.30;21.11
80164;BME280;70071;55.130;61.268;2024-02-21T00:25:36;100120.97;;;-9.66;21.50
80164;BME280;70071;55.130;61.268;2024-02-21T00:28:02;100079.00;;;-10.12;21.63
80164;BME280;70071;55.130;61.268;2024-02-21T00:30:28;99963.75;;;-10.71;21.37
80164;BME280;70071;55.130;61.268;2024-02-21T00:32:55;100031.66;;;-10.42;21.14
80164;BME280;70071;55.130;61.268;2024-02-21T00:35:21;99920.72;;;-11.03;20.96
80164;BME280;70071;55.130;61.268;2024-02-21T00:37:47;99963.00;;;-10.76;21.17
80164;BME280;70071;55.130;61.268;2024-02-21T00:40:13;99996.00;;;-10.58;21.65
80164;BME280;70071;55.130;61.268;2024-02-21T00:42:46;100123.03;;;-9.85;20.90
80164;BME280;70071;55.130;61.268;2024-02-21T00:45:12;100018.00;;;-10.43;21.52
80164;BME280;70071;55.130;61.268;2024-02-21T00:47:37;100102.75;;;-10.01;21.18
80164;BME280;70071;55.130;61.268;2024-02-21T00:50:04;100080.78;;;-10.15;21.08
80164;BME280;70071;55.130;61.268;2024-02-21T00:52:30;99928.53;;;-11.11;20.87
80164;BME280;70071;55.130;61.268;2024-02-21T00:54:56;100131.78;;;-9.95;21.74
80164;BME280;70071;55.130;61.268;2024-02-21T00:57:22;100115.63;;;-10.04;21.43
80164;BME280;70071;55.130;61.268;2024-02-21T00:59:49;100039.34;;;-10.42;21.16
80164;BME280;70071;55.130;61.268;2024-02-21T01:02:15;99978.50;;;-10.85;21.52
80164;BME280;70071;55.130;61.268;2024-02-21T01:04:41;99972.47;;;-10.81;20.88
80164;BME280;70071;55.130;61.268;2024-02-21T01:07:07;99919.94;;;-11.09;21.21
80164;BME280;70071;55.130;61.268;2024-02-21T01:09:33;100008.84;;;-10.59;20.73
80164;BME280;70071;55.130;61.268;2024-02-21T01:11:59;99896.41;;;-11.31;20.22
80164;BME280;70071;55.130;61.268;2024-02-21T01:14:25;99979.13;;;-10.71;20.78
80164;BME280;70071;55.130;61.268;2024-02-21T01:16:51;99991.03;;;-10.67;20.94
80164;BME280;70071;55.130;61.268;2024-02-21T01:19:17;99979.28;;;-10.80;21.15
80164;BME280;70071;55.130;61.268;2024-02-21T01:21:43;99926.75;;;-11.08;20.88
80164;BME280;70071;55.130;61.268;2024-02-21T01:24:09;99942.94;;;-11.05;21.65
80164;BME280;70071;55.130;61.268;2024-02-21T01:26:35;100056.31;;;-10.33;21.17
80164;BME280;70071;55.130;61.268;2024-02-21T01:29:01;99974.94;;;-10.77;21.40
80164;BME280;70071;55.130;61.268;2024-02-21T01:31:27;99985.22;;;-10.78;20.70
80164;BME280;70071;55.130;61.268;2024-02-21T01:33:53;99985.19;;;-10.77;20.44
80164;BME280;70071;55.130;61.268;2024-02-21T01:36:19;100065.59;;;-10.29;21.36
80164;BME280;70071;55.130;61.268;2024-02-21T01:38:45;99998.88;;;-10.75;21.05
80164;BME280;70071;55.130;61.268;2024-02-21T01:41:11;99961.53;;;-10.91;21.22
80164;BME280;70071;55.130;61.268;2024-02-21T01:43:37;99962.44;;;-10.95;20.69
80164;BME280;70071;55.130;61.268;2024-02-21T01:46:03;99940.47;;;-11.10;21.48
80164;BME280;70071;55.130;61.268;2024-02-21T01:48:29;100010.63;;;-10.64;21.43
80164;BME280;70071;55.130;61.268;2024-02-21T01:50:56;100040.53;;;-10.62;20.72
80164;BME280;70071;55.130;61.268;2024-02-21T01:53:27;100094.53;;;-10.20;20.48
80164;BME280;70071;55.130;61.268;2024-02-21T01:55:55;99987.09;;;-10.88;20.88
80164;BME280;70071;55.130;61.268;2024-02-21T01:58:22;100076.91;;;-10.37;21.17
80164;BME280;70071;55.130;61.268;2024-02-21T02:00:48;99976.94;;;-10.93;20.79
80164;BME280;70071;55.130;61.268;2024-02-21T02:03:16;99969.34;;;-10.99;21.43
80164;BME280;70071;55.130;61.268;2024-02-21T02:08:15;100003.19;;;-10.78;21.28
80164;BME280;70071;55.130;61.268;2024-02-21T02:10:41;99935.69;;;-11.33;21.40
80164;BME280;70071;55.130;61.268;2024-02-21T02:13:08;100033.75;;;-10.66;21.60
80164;BME280;70071;55.130;61.268;2024-02-21T02:15:45;99965.16;;;-11.04;21.41
80164;BME280;70071;55.130;61.268;2024-02-21T02:18:12;99964.34;;;-11.06;20.52
80164;BME280;70071;55.130;61.268;2024-02-21T02:20:39;99975.34;;;-11.01;20.62
80164;BME280;70071;55.130;61.268;2024-02-21T02:23:11;100049.16;;;-10.67;21.11
80164;BME280;70071;55.130;61.268;2024-02-21T02:25:39;100063.41;;;-10.49;21.19
80164;BME280;70071;55.130;61.268;2024-02-21T02:28:06;100032.47;;;-10.93;21.03
80164;BME280;70071;55.130;61.268;2024-02-21T02:30:49;99957.25;;;-11.48;20.53
80164;BME280;70071;55.130;61.268;2024-02-21T02:33:21;100015.09;;;-11.32;21.22
80164;BME280;70071;55.130;61.268;2024-02-21T02:35:47;100015.13;;;-11.35;20.66
80164;BME280;70071;55.130;61.268;2024-02-21T02:38:15;100077.09;;;-11.05;21.12
80164;BME280;70071;55.130;61.268;2024-02-21T02:40:42;99961.03;;;-11.74;21.46
80164;BME280;70071;55.130;61.268;2024-02-21T02:43:08;100077.03;;;-11.00;20.63
80164;BME280;70071;55.130;61.268;2024-02-21T02:45:34;100069.50;;;-11.13;21.12
80164;BME280;70071;55.130;61.268;2024-02-21T02:48:00;100027.25;;;-11.48;21.22
80164;BME280;70071;55.130;61.268;2024-02-21T02:50:27;100068.84;;;-11.27;21.27
80164;BME280;70071;55.130;61.268;2024-02-21T02:52:54;100025.66;;;-11.55;21.38
80164;BME280;70071;55.130;61.268;2024-02-21T02:55:23;100041.03;;;-11.56;21.35
80164;BME280;70071;55.130;61.268;2024-02-21T02:57:50;100028.28;;;-11.61;21.43
80164;BME280;70071;55.130;61.268;2024-02-21T03:00:16;99873.41;;;-12.57;21.46
80164;BME280;70071;55.130;61.268;2024-02-21T03:02:43;100083.47;;;-11.35;20.74
80164;BME280;70071;55.130;61.268;2024-02-21T03:05:17;100069.88;;;-11.44;20.62
80164;BME280;70071;55.130;61.268;2024-02-21T03:07:44;100008.06;;;-11.83;21.74
80164;BME280;70071;55.130;61.268;2024-02-21T03:10:11;99965.78;;;-12.13;20.84
80164;BME280;70071;55.130;61.268;2024-02-21T03:12:38;100048.75;;;-11.59;21.23
80164;BME280;70071;55.130;61.268;2024-02-21T03:15:05;100047.16;;;-11.70;20.61
80164;BME280;70071;55.130;61.268;2024-02-21T03:17:34;99968.50;;;-12.25;21.11
80164;BME280;70071;55.130;61.268;2024-02-21T03:20:04;99944.00;;;-12.48;21.47
80164;BME280;70071;55.130;61.268;2024-02-21T03:22:31;100041.41;;;-11.90;21.83
80164;BME280;70071;55.130;61.268;2024-02-21T03:24:59;100083.88;;;-11.71;21.09
80164;BME280;70071;55.130;61.268;2024-02-21T03:27:37;100013.56;;;-12.13;21.28
80164;BME280;70071;55.130;61.268;2024-02-21T03:30:04;99939.88;;;-12.58;21.50
80164;BME280;70071;55.130;61.268;2024-02-21T03:32:32;99989.81;;;-12.25;21.52
80164;BME280;70071;55.130;61.268;2024-02-21T03:37:47;99983.06;;;-12.32;21.51
80164;BME280;70071;55.130;61.268;2024-02-21T03:40:15;100080.50;;;-11.74;21.45
80164;BME280;70071;55.130;61.268;2024-02-21T03:42:41;99988.16;;;-12.29;20.69
80164;BME280;70071;55.130;61.268;2024-02-21T03:45:07;100088.03;;;-11.62;20.73
80164;BME280;70071;55.130;61.268;2024-02-21T03:47:33;99938.25;;;-12.67;21.48
80164;BME280;70071;55.130;61.268;2024-02-21T03:49:59;99991.47;;;-12.21;20.93
80164;BME280;70071;55.130;61.268;2024-02-21T03:52:26;100046.66;;;-11.98;21.07
80164;BME280;70071;55.130;61.268;2024-02-21T03:54:52;99974.59;;;-12.34;20.98
80164;BME280;70071;55.130;61.268;2024-02-21T03:57:18;100089.75;;;-11.61;21.41
80164;BME280;70071;55.130;61.268;2024-02-21T04:00:15;100038.03;;;-11.91;21.63
80164;BME280;70071;55.130;61.268;2024-02-21T04:02:48;100025.47;;;-12.09;20.93
80164;BME280;70071;55.130;61.268;2024-02-21T04:05:16;99956.75;;;-12.43;21.23
80164;BME280;70071;55.130;61.268;2024-02-21T04:07:43;100074.56;;;-11.76;21.13
80164;BME280;70071;55.130;61.268;2024-02-21T04:10:11;100047.38;;;-11.87;21.25
80164;BME280;70071;55.130;61.268;2024-02-21T04:12:38;99910.81;;;-12.53;20.81
80164;BME280;70071;55.130;61.268;2024-02-21T04:15:06;99965.00;;;-12.17;21.81
80164;BME280;70071;55.130;61.268;2024-02-21T04:17:38;99948.91;;;-12.25;21.82
80164;BME280;70071;55.130;61.268;2024-02-21T04:20:13;100017.53;;;-11.89;21.57
80164;BME280;70071;55.130;61.268;2024-02-21T04:22:39;100064.25;;;-11.70;21.72
80164;BME280;70071;55.130;61.268;2024-02-21T04:25:05;100026.81;;;-11.79;21.23
80164;BME280;70071;55.130;61.268;2024-02-21T04:27:31;99929.47;;;-12.41;21.20
80164;BME280;70071;55.130;61.268;2024-02-21T04:29:57;100083.66;;;-11.54;21.73
80164;BME280;70071;55.130;61.268;2024-02-21T04:32:23;100087.91;;;-11.51;21.52
80164;BME280;70071;55.130;61.268;2024-02-21T04:34:50;100034.44;;;-11.74;21.30
80164;BME280;70071;55.130;61.268;2024-02-21T04:37:17;100099.56;;;-11.27;22.08
80164;BME280;70071;55.130;61.268;2024-02-21T04:39:49;99929.13;;;-12.12;20.91
80164;BME280;70071;55.130;61.268;2024-02-21T04:42:17;99976.53;;;-11.85;21.54
80164;BME280;70071;55.130;61.268;2024-02-21T04:44:44;99901.19;;;-12.27;21.64
80164;BME280;70071;55.130;61.268;2024-02-21T04:47:10;100055.19;;;-11.29;21.48
80164;BME280;70071;55.130;61.268;2024-02-21T04:49:36;100031.56;;;-11.50;22.13
80164;BME280;70071;55.130;61.268;2024-02-21T04:52:02;99977.34;;;-11.83;22.21
80164;BME280;70071;55.130;61.268;2024-02-21T04:54:28;100038.16;;;-11.33;21.74
80164;BME280;70071;55.130;61.268;2024-02-21T04:56:54;100093.31;;;-11.06;21.31
80164;BME280;70071;55.130;61.268;2024-02-21T04:59:20;100004.06;;;-11.37;22.14
80164;BME280;70071;55.130;61.268;2024-02-21T05:01:46;100085.56;;;-11.01;21.18
80164;BME280;70071;55.130;61.268;2024-02-21T05:04:12;99982.00;;;-11.47;22.17
80164;BME280;70071;55.130;61.268;2024-02-21T05:06:41;99960.66;;;-11.46;21.78
80164;BME280;70071;55.130;61.268;2024-02-21T05:09:10;99982.00;;;-11.46;21.91
80164;BME280;70071;55.130;61.268;2024-02-21T05:11:38;100010.03;;;-11.36;22.44
80164;BME280;70071;55.130;61.268;2024-02-21T05:14:05;100092.00;;;-10.73;23.22
80164;BME280;70071;55.130;61.268;2024-02-21T05:16:31;100013.56;;;-10.86;21.81
80164;BME280;70071;55.130;61.268;2024-02-21T05:18:57;99911.81;;;-11.34;21.98
80164;BME280;70071;55.130;61.268;2024-02-21T05:21:26;99998.41;;;-10.48;22.22
80164;BME280;70071;55.130;61.268;2024-02-21T05:24:02;99954.81;;;-11.00;22.35
80164;BME280;70071;55.130;61.268;2024-02-21T05:26:29;100042.69;;;-10.39;22.34
80164;BME280;70071;55.130;61.268;2024-02-21T05:28:55;99978.41;;;-10.78;21.71
80164;BME280;70071;55.130;61.268;2024-02-21T05:31:21;99975.31;;;-10.98;22.74
80164;BME280;70071;55.130;61.268;2024-02-21T05:33:47;100009.78;;;-10.63;21.92
80164;BME280;70071;55.130;61.268;2024-02-21T05:36:16;100114.59;;;-9.93;22.13
80164;BME280;70071;55.130;61.268;2024-02-21T05:38:42;99976.22;;;-11.02;22.58
80164;BME280;70071;55.130;61.268;2024-02-21T05:41:08;99915.00;;;-11.21;22.05
80164;BME280;70071;55.130;61.268;2024-02-21T05:43:42;99891.81;;;-11.13;22.76
80164;BME280;70071;55.130;61.268;2024-02-21T05:46:08;100016.81;;;-10.28;23.46
80164;BME280;70071;55.130;61.268;2024-02-21T05:48:34;100084.97;;;-10.11;22.60
80164;BME280;70071;55.130;61.268;2024-02-21T05:51:03;100086.81;;;-10.18;23.61
80164;BME280;70071;55.130;61.268;2024-02-21T05:53:32;100038.94;;;-10.70;22.78
80164;BME280;70071;55.130;61.268;2024-02-21T05:55:58;99898.22;;;-11.40;23.44
80164;BME280;70071;55.130;61.268;2024-02-21T05:58:24;99965.25;;;-11.11;23.45
80164;BME280;70071;55.130;61.268;2024-02-21T06:00:54;100078.19;;;-10.14;23.77
80164;BME280;70071;55.130;61.268;2024-02-21T06:03:37;99991.59;;;-10.51;23.49
80164;BME280;70071;55.130;61.268;2024-02-21T06:06:34;99986.72;;;-10.18;22.75
80164;BME280;70071;55.130;61.268;2024-02-21T06:09:00;99911.88;;;-10.40;23.09
80164;BME280;70071;55.130;61.268;2024-02-21T06:11:28;99996.97;;;-9.74;23.46
80164;BME280;70071;55.130;61.268;2024-02-21T06:13:54;100082.09;;;-9.08;23.59
80164;BME280;70071;55.130;61.268;2024-02-21T06:16:20;100073.59;;;-9.11;23.23
80164;BME280;70071;55.130;61.268;2024-02-21T06:18:50;99980.88;;;-9.42;23.22
80164;BME280;70071;55.130;61.268;2024-02-21T06:21:19;99956.66;;;-9.71;23.44
80164;BME280;70071;55.130;61.268;2024-02-21T06:23:45;99926.09;;;-9.44;22.86
80164;BME280;70071;55.130;61.268;2024-02-21T06:26:11;100095.00;;;-8.71;22.34
80164;BME280;70071;55.130;61.268;2024-02-21T06:28:37;100045.00;;;-8.97;22.95
80164;BME280;70071;55.130;61.268;2024-02-21T06:31:03;100039.38;;;-8.77;23.33
80164;BME280;70071;55.130;61.268;2024-02-21T06:33:29;99902.88;;;-9.39;23.23
80164;BME280;70071;55.130;61.268;2024-02-21T06:35:55;100058.88;;;-8.32;22.23
80164;BME280;70071;55.130;61.268;2024-02-21T06:38:22;100064.53;;;-8.19;22.80
80164;BME280;70071;55.130;61.268;2024-02-21T06:40:48;100024.69;;;-8.39;22.92
80164;BME280;70071;55.130;61.268;2024-02-21T06:43:18;100061.19;;;-8.23;22.50
80164;BME280;70071;55.130;61.268;2024-02-21T06:45:44;100081.06;;;-7.95;22.74
80164;BME280;70071;55.130;61.268;2024-02-21T06:48:13;100030.44;;;-8.27;22.42
80164;BME280;70071;55.130;61.268;2024-02-21T06:50:42;99983.97;;;-8.55;22.61
80164;BME280;70071;55.130;61.268;2024-02-21T06:53:08;100045.56;;;-7.83;22.73
80164;BME280;70071;55.130;61.268;2024-02-21T06:55:34;99982.31;;;-8.25;22.47
80164;BME280;70071;55.130;61.268;2024-02-21T06:58:00;100098.28;;;-7.33;22.52
80164;BME280;70071;55.130;61.268;2024-02-21T07:00:28;99976.22;;;-7.91;22.46
80164;BME280;70071;55.130;61.268;2024-02-21T07:02:54;100013.06;;;-7.58;21.68
80164;BME280;70071;55.130;61.268;2024-02-21T07:05:25;100060.66;;;-7.40;21.59
80164;BME280;70071;55.130;61.268;2024-02-21T07:07:53;99889.84;;;-8.03;21.79
80164;BME280;70071;55.130;61.268;2024-02-21T07:10:20;99923.59;;;-7.82;21.94
80164;BME280;70071;55.130;61.268;2024-02-21T07:12:46;100087.84;;;-6.98;21.99
80164;BME280;70071;55.130;61.268;2024-02-21T07:15:12;99920.66;;;-7.15;22.43
80164;BME280;70071;55.130;61.268;2024-02-21T07:17:38;99977.03;;;-7.31;21.35
80164;BME280;70071;55.130;61.268;2024-02-21T07:20:04;99916.31;;;-7.98;21.88
80164;BME280;70071;55.130;61.268;2024-02-21T07:22:30;100077.78;;;-6.79;21.49
80164;BME280;70071;55.130;61.268;2024-02-21T07:24:56;100040.38;;;-6.66;21.86
80164;BME280;70071;55.130;61.268;2024-02-21T07:27:23;99994.00;;;-6.96;21.86
80164;BME280;70071;55.130;61.268;2024-02-21T07:29:54;100013.41;;;-6.84;21.68
80164;BME280;70071;55.130;61.268;2024-02-21T07:32:20;100087.69;;;-6.38;21.23
80164;BME280;70071;55.130;61.268;2024-02-21T07:34:46;99988.75;;;-6.66;22.22
80164;BME280;70071;55.130;61.268;2024-02-21T07:37:13;99991.69;;;-6.51;21.77
80164;BME280;70071;55.130;61.268;2024-02-21T07:39:41;100013.47;;;-6.33;21.73
80164;BME280;70071;55.130;61.268;2024-02-21T07:42:07;99898.28;;;-6.88;21.62
80164;BME280;70071;55.130;61.268;2024-02-21T07:44:33;100042.06;;;-6.13;21.56
80164;BME280;70071;55.130;61.268;2024-02-21T07:47:18;99965.47;;;-6.64;22.11
80164;BME280;70071;55.130;61.268;2024-02-21T07:49:44;100078.03;;;-6.07;21.49
80164;BME280;70071;55.130;61.268;2024-02-21T07:52:11;100043.81;;;-6.13;21.85
80164;BME280;70071;55.130;61.268;2024-02-21T07:54:37;100007.28;;;-6.02;21.66
80164;BME280;70071;55.130;61.268;2024-02-21T07:57:04;99966.31;;;-6.38;21.85
80164;BME280;70071;55.130;61.268;2024-02-21T07:59:30;100005.09;;;-6.40;21.52
80164;BME280;70071;55.130;61.268;2024-02-21T08:02:01;100068.72;;;-6.37;21.16
80164;BME280;70071;55.130;61.268;2024-02-21T08:04:31;99996.91;;;-7.06;21.53
80164;BME280;70071;55.130;61.268;2024-02-21T08:07:30;99934.06;;;-7.04;22.32
80164;BME280;70071;55.130;61.268;2024-02-21T08:09:49;100005.34;;;-6.22;22.28
80164;BME280;70071;55.130;61.268;2024-02-21T08:12:21;100062.00;;;-5.67;22.07
80164;BME280;70071;55.130;61.268;2024-02-21T08:14:50;99948.84;;;-6.32;21.87
80164;BME280;70071;55.130;61.268;2024-02-21T08:17:16;99930.63;;;-6.27;21.34
80164;BME280;70071;55.130;61.268;2024-02-21T08:19:42;100041.66;;;-5.53;21.13
80164;BME280;70071;55.130;61.268;2024-02-21T08:22:09;100031.91;;;-5.23;21.24
80164;BME280;70071;55.130;61.268;2024-02-21T08:24:35;99981.78;;;-5.20;20.66
80164;BME280;70071;55.130;61.268;2024-02-21T08:27:01;100027.22;;;-4.69;21.25
80164;BME280;70071;55.130;61.268;2024-02-21T08:29:29;100069.88;;;-4.35;21.15
80164;BME280;70071;55.130;61.268;2024-02-21T08:31:55;99948.81;;;-5.15;20.54
80164;BME280;70071;55.130;61.268;2024-02-21T08:34:21;100028.81;;;-4.44;20.74
80164;BME280;70071;55.130;61.268;2024-02-21T08:36:47;99921.41;;;-4.98;20.54
80164;BME280;70071;55.130;61.268;2024-02-21T08:39:13;100056.63;;;-4.06;20.45
80164;BME280;70071;55.130;61.268;2024-02-21T08:41:42;99948.38;;;-4.61;20.54
80164;BME280;70071;55.130;61.268;2024-02-21T08:44:08;100052.78;;;-3.77;20.11
80164;BME280;70071;55.130;61.268;2024-02-21T08:46:34;100026.22;;;-3.82;20.48
80164;BME280;70071;55.130;61.268;2024-02-21T08:49:06;99933.22;;;-4.30;20.54
80164;BME280;70071;55.130;61.268;2024-02-21T08:51:32;99980.78;;;-3.72;19.98
80164;BME280;70071;55.130;61.268;2024-02-21T08:54:01;99880.31;;;-4.25;20.02
80164;BME280;70071;55.130;61.268;2024-02-21T08:56:30;99987.41;;;-3.46;19.57
80164;BME280;70071;55.130;61.268;2024-02-21T08:59:02;99949.13;;;-3.60;19.42
80164;BME280;70071;55.130;61.268;2024-02-21T09:01:29;99870.94;;;-3.71;19.88
80164;BME280;70071;55.130;61.268;2024-02-21T09:03:55;99980.91;;;-2.99;19.87
80164;BME280;70071;55.130;61.268;2024-02-21T09:06:23;99964.44;;;-2.99;19.61
80164;BME280;70071;55.130;61.268;2024-02-21T09:08:52;99956.94;;;-2.87;19.39
80164;BME280;70071;55.130;61.268;2024-02-21T09:11:18;99892.59;;;-2.99;19.32
80164;BME280;70071;55.130;61.268;2024-02-21T09:13:44;99962.13;;;-2.52;19.31
80164;BME280;70071;55.130;61.268;2024-02-21T09:16:10;100036.63;;;-1.82;19.34
80164;BME280;70071;55.130;61.268;2024-02-21T09:18:36;99922.84;;;-2.45;19.00
80164;BME280;70071;55.130;61.268;2024-02-21T09:21:05;100032.34;;;-1.83;18.59
80164;BME280;70071;55.130;61.268;2024-02-21T09:23:32;99994.94;;;-1.98;18.38
80164;BME280;70071;55.130;61.268;2024-02-21T09:25:58;100015.91;;;-1.84;18.22
80164;BME280;70071;55.130;61.268;2024-02-21T09:28:26;100060.56;;;-1.42;19.02
80164;BME280;70071;55.130;61.268;2024-02-21T09:30:55;99957.00;;;-2.02;18.85
80164;BME280;70071;55.130;61.268;2024-02-21T09:33:30;99991.09;;;-1.57;18.15
80164;BME280;70071;55.130;61.268;2024-02-21T09:36:08;99942.22;;;-1.68;18.30
80164;BME280;70071;55.130;61.268;2024-02-21T09:38:35;99981.44;;;-1.23;18.52
80164;BME280;70071;55.130;61.268;2024-02-21T09:44:38;99883.13;;;-1.50;18.04
80164;BME280;70071;55.130;61.268;2024-02-21T09:47:30;99997.56;;;-0.55;18.71
80164;BME280;70071;55.130;61.268;2024-02-21T09:50:01;99866.94;;;-0.95;18.54
80164;BME280;70071;55.130;61.268;2024-02-21T09:52:30;100057.56;;;0.35;19.03
80164;BME280;70071;55.130;61.268;2024-02-21T09:55:01;99927.03;;;-0.23;19.09
80164;BME280;70071;55.130;61.268;2024-02-21T09:57:34;100045.88;;;0.84;18.01
80164;BME280;70071;55.130;61.268;2024-02-21T10:00:07;99945.28;;;0.35;17.88
80164;BME280;70071;55.130;61.268;2024-02-21T10:02:34;99880.53;;;0.13;18.12
80164;BME280;70071;55.130;61.268;2024-02-21T10:05:00;99891.44;;;0.47;18.93
80164;BME280;70071;55.130;61.268;2024-02-21T10:07:26;99963.22;;;1.23;20.28
80164;BME280;70071;55.130;61.268;2024-02-21T10:10:05;100043.94;;;1.95;19.02
80164;BME280;70071;55.130;61.268;2024-02-21T10:12:34;100042.19;;;2.08;19.48
80164;BME280;70071;55.130;61.268;2024-02-21T10:15:04;99959.44;;;1.80;18.68
80164;BME280;70071;55.130;61.268;2024-02-21T10:17:32;100046.56;;;2.46;19.63
80164;BME280;70071;55.130;61.268;2024-02-21T10:20:09;99990.50;;;2.36;16.99
80164;BME280;70071;55.130;61.268;2024-02-21T10:22:38;99940.16;;;2.20;17.51
80164;BME280;70071;55.130;61.268;2024-02-21T10:25:12;100043.91;;;3.09;18.46
80164;BME280;70071;55.130;61.268;2024-02-21T10:27:39;100044.41;;;3.38;17.89
80164;BME280;70071;55.130;61.268;2024-02-21T10:30:13;100045.81;;;3.55;18.56
80164;BME280;70071;55.130;61.268;2024-02-21T10:32:53;99926.44;;;2.90;16.65
80164;BME280;70071;55.130;61.268;2024-02-21T10:35:29;99906.66;;;2.97;18.07
80164;BME280;70071;55.130;61.268;2024-02-21T10:37:57;99958.72;;;3.50;18.28
80164;BME280;70071;55.130;61.268;2024-02-21T10:40:27;100047.34;;;4.40;17.93
80164;BME280;70071;55.130;61.268;2024-02-21T10:43:02;99964.06;;;3.96;18.81
80164;BME280;70071;55.130;61.268;2024-02-21T10:45:35;100043.03;;;4.73;18.70
80164;BME280;70071;55.130;61.268;2024-02-21T10:48:20;100032.13;;;4.89;17.03
80164;BME280;70071;55.130;61.268;2024-02-21T10:51:15;99986.59;;;4.77;15.13
80164;BME280;70071;55.130;61.268;2024-02-21T10:53:54;100038.00;;;5.37;15.07
80164;BME280;70071;55.130;61.268;2024-02-21T10:56:30;99966.06;;;5.15;18.73
80164;BME280;70071;55.130;61.268;2024-02-21T10:59:07;100025.16;;;5.76;17.95
80164;BME280;70071;55.130;61.268;2024-02-21T11:01:34;99946.84;;;5.36;16.72
80164;BME280;70071;55.130;61.268;2024-02-21T11:04:06;100037.84;;;6.03;15.74
80164;BME280;70071;55.130;61.268;2024-02-21T11:06:41;99892.97;;;5.40;17.45
80164;BME280;70071;55.130;61.268;2024-02-21T11:09:09;99955.91;;;6.06;17.75
80164;BME280;70071;55.130;61.268;2024-02-21T11:11:37;100050.31;;;6.84;18.78
80164;BME280;70071;55.130;61.268;2024-02-21T11:14:07;100016.28;;;6.81;18.20
80164;BME280;70071;55.130;61.268;2024-02-21T11:16:38;100043.00;;;7.07;15.27
80164;BME280;70071;55.130;61.268;2024-02-21T11:19:09;99950.00;;;6.54;15.41
80164;BME280;70071;55.130;61.268;2024-02-21T11:21:37;99968.06;;;6.79;16.05
80164;BME280;70071;55.130;61.268;2024-02-21T11:24:04;100009.25;;;7.30;16.91
80164;BME280;70071;55.130;61.268;2024-02-21T11:26:30;100039.44;;;7.67;13.96
80164;BME280;70071;55.130;61.268;2024-02-21T11:29:03;100012.34;;;7.45;13.62
80164;BME280;70071;55.130;61.268;2024-02-21T11:31:42;100016.06;;;7.62;13.72
80164;BME280;70071;55.130;61.268;2024-02-21T11:34:09;99980.78;;;7.43;14.83
80164;BME280;70071;55.130;61.268;2024-02-21T11:36:39;99955.34;;;7.33;15.27
80164;BME280;70071;55.130;61.268;2024-02-21T11:39:11;99909.91;;;7.19;15.82
80164;BME280;70071;55.130;61.268;2024-02-21T11:41:40;99985.09;;;7.64;15.25
80164;BME280;70071;55.130;61.268;2024-02-21T11:44:06;100006.22;;;7.83;14.57
80164;BME280;70071;55.130;61.268;2024-02-21T11:46:32;99929.78;;;7.33;15.04
80164;BME280;70071;55.130;61.268;2024-02-21T11:48:58;99936.88;;;7.33;13.65
80164;BME280;70071;55.130;61.268;2024-02-21T11:51:27;99963.38;;;7.60;13.66
80164;BME280;70071;55.130;61.268;2024-02-21T11:53:53;99958.53;;;7.56;14.03
80164;BME280;70071;55.130;61.268;2024-02-21T11:56:19;100011.75;;;7.90;14.24
80164;BME280;70071;55.130;61.268;2024-02-21T11:58:46;100028.84;;;7.96;13.13
80164;BME280;70071;55.130;61.268;2024-02-21T12:01:15;100033.00;;;7.98;13.63
80164;BME280;70071;55.130;61.268;2024-02-21T12:03:42;99971.59;;;7.57;13.54
80164;BME280;70071;55.130;61.268;2024-02-21T12:06:33;100036.94;;;7.94;10.73
80164;BME280;70071;55.130;61.268;2024-02-21T12:08:59;100007.06;;;7.55;12.97
80164;BME280;70071;55.130;61.268;2024-02-21T12:11:26;100007.63;;;7.49;12.81
80164;BME280;70071;55.130;61.268;2024-02-21T12:14:03;100010.53;;;7.55;11.09
80164;BME280;70071;55.130;61.268;2024-02-21T12:16:33;99937.69;;;6.74;11.58
80164;BME280;70071;55.130;61.268;2024-02-21T12:19:03;99990.66;;;7.22;12.44
80164;BME280;70071;55.130;61.268;2024-02-21T12:21:30;99952.25;;;6.69;12.19
80164;BME280;70071;55.130;61.268;2024-02-21T12:24:17;100041.03;;;7.09;10.88
80164;BME280;70071;55.130;61.268;2024-02-21T12:26:46;99993.81;;;6.46;12.58
80164;BME280;70071;55.130;61.268;2024-02-21T12:29:12;100045.22;;;6.61;12.29
80164;BME280;70071;55.130;61.268;2024-02-21T12:31:39;99980.63;;;5.94;12.36
80164;BME280;70071;55.130;61.268;2024-02-21T12:34:05;99993.03;;;5.82;12.16
80164;BME280;70071;55.130;61.268;2024-02-21T12:36:58;100046.00;;;6.00;11.47
80164;BME280;70071;55.130;61.268;2024-02-21T12:39:24;99988.91;;;5.47;12.40
80164;BME280;70071;55.130;61.268;2024-02-21T12:41:58;99886.50;;;4.58;12.35
80164;BME280;70071;55.130;61.268;2024-02-21T12:44:24;100043.59;;;5.43;12.20
80164;BME280;70071;55.130;61.268;2024-02-21T12:46:50;99893.97;;;4.19;12.37
80164;BME280;70071;55.130;61.268;2024-02-21T12:49:19;99984.47;;;4.60;12.59
80164;BME280;70071;55.130;61.268;2024-02-21T12:51:45;99977.09;;;4.31;12.45
80164;BME280;70071;55.130;61.268;2024-02-21T12:54:15;99972.28;;;4.02;12.76
80164;BME280;70071;55.130;61.268;2024-02-21T12:56:41;100012.44;;;4.16;12.81
80164;BME280;70071;55.130;61.268;2024-02-21T12:59:07;99939.75;;;3.47;12.29